createdAt,value
2018-07-31T00:02:00.260Z,19.27
2018-07-31T00:04:29.066Z,20.00
2018-07-31T00:06:58.034Z,19.83
2018-07-31T00:09:26.868Z,19.60
2018-07-31T00:11:55.704Z,20.37
2018-07-31T00:14:24.524Z,20.13
2018-07-31T00:16:53.723Z,19.00
2018-07-31T00:19:22.599Z,19.73
2018-07-31T00:21:51.456Z,19.10
2018-07-31T00:24:20.283Z,17.93
2018-07-31T00:26:49.065Z,18.27
2018-07-31T00:29:17.929Z,19.23
2018-07-31T00:31:46.712Z,21.73
2018-07-31T00:34:15.504Z,19.03
2018-07-31T00:36:44.359Z,19.93
2018-07-31T00:39:13.265Z,19.70
2018-07-31T00:41:42.674Z,20.37
2018-07-31T00:44:11.776Z,22.03
2018-07-31T00:46:40.607Z,21.03
2018-07-31T00:49:09.377Z,21.57
2018-07-31T00:51:38.352Z,20.83
2018-07-31T00:54:07.154Z,20.23
2018-07-31T00:56:35.940Z,23.90
2018-07-31T00:59:04.792Z,22.63
2018-07-31T01:01:33.596Z,23.10
2018-07-31T01:04:02.383Z,21.70
2018-07-31T01:06:37.198Z,18.80
2018-07-31T01:09:09.776Z,21.17
2018-07-31T01:11:38.708Z,20.97
2018-07-31T01:14:08.364Z,21.60
2018-07-31T01:16:38.388Z,20.63
2018-07-31T01:19:07.488Z,19.80
2018-07-31T01:21:36.456Z,18.87
2018-07-31T01:24:05.419Z,17.63
2018-07-31T01:26:34.243Z,18.13
2018-07-31T01:29:03.144Z,17.07
2018-07-31T01:31:32.008Z,17.07
2018-07-31T01:34:00.893Z,19.47
2018-07-31T01:36:29.681Z,16.77
2018-07-31T01:38:58.492Z,16.83
2018-07-31T01:41:27.333Z,16.43
2018-07-31T01:43:56.460Z,16.70
2018-07-31T01:46:25.248Z,16.00
2018-07-31T01:48:54.179Z,15.90
2018-07-31T01:51:22.992Z,14.47
2018-07-31T01:53:51.759Z,13.30
2018-07-31T01:56:20.794Z,12.53
2018-07-31T01:58:49.675Z,12.10
2018-07-31T02:01:18.474Z,11.67
2018-07-31T02:03:47.308Z,12.17
2018-07-31T02:06:16.189Z,14.33
2018-07-31T02:08:44.938Z,11.97
2018-07-31T02:11:13.740Z,14.10
2018-07-31T02:13:42.558Z,14.10
2018-07-31T02:16:11.325Z,13.87
2018-07-31T02:18:40.093Z,13.03
2018-07-31T02:21:08.901Z,13.10
2018-07-31T02:23:37.736Z,13.37
2018-07-31T02:26:07.872Z,15.80
2018-07-31T02:28:36.688Z,12.53
2018-07-31T02:31:05.501Z,12.67
2018-07-31T02:33:34.350Z,13.03
2018-07-31T02:36:03.265Z,12.47
2018-07-31T02:38:32.069Z,11.93
2018-07-31T02:41:00.872Z,12.30
2018-07-31T02:43:29.678Z,11.13
2018-07-31T02:45:58.500Z,12.80
2018-07-31T02:48:27.340Z,11.80
2018-07-31T02:50:56.144Z,12.07
2018-07-31T02:53:24.945Z,11.80
2018-07-31T02:55:53.783Z,13.10
2018-07-31T02:58:22.635Z,13.70
2018-07-31T03:00:51.430Z,15.77
2018-07-31T03:03:21.657Z,12.33
2018-07-31T03:05:50.457Z,12.00
2018-07-31T03:08:19.293Z,11.17
2018-07-31T03:10:48.140Z,11.40
2018-07-31T03:13:16.984Z,11.90
2018-07-31T03:15:45.778Z,11.93
2018-07-31T03:18:14.557Z,11.00
2018-07-31T03:20:43.461Z,11.10
2018-07-31T03:23:12.323Z,11.40
2018-07-31T03:25:41.152Z,13.73
2018-07-31T03:28:10.059Z,13.63
2018-07-31T03:30:38.894Z,13.07
2018-07-31T03:33:07.711Z,13.10
2018-07-31T03:35:36.579Z,16.10
2018-07-31T03:38:05.421Z,16.37
2018-07-31T03:40:34.317Z,12.83
2018-07-31T03:43:03.127Z,14.13
2018-07-31T03:45:31.920Z,16.47
2018-07-31T03:48:00.752Z,13.60
2018-07-31T03:50:29.630Z,13.00
2018-07-31T03:52:58.479Z,13.63
2018-07-31T03:55:27.330Z,13.17
2018-07-31T03:57:56.233Z,12.93
2018-07-31T04:00:25.085Z,12.63
2018-07-31T04:02:54.031Z,13.40
2018-07-31T04:05:22.888Z,14.63
2018-07-31T04:07:51.700Z,13.73
2018-07-31T04:10:21.743Z,13.27
2018-07-31T04:12:50.544Z,14.67
2018-07-31T04:15:19.307Z,13.13
2018-07-31T04:17:53.716Z,13.83
2018-07-31T04:20:22.543Z,14.70
2018-07-31T04:22:51.468Z,14.47
2018-07-31T04:25:20.279Z,13.53
2018-07-31T04:27:49.154Z,14.37
2018-07-31T04:30:17.940Z,14.97
2018-07-31T04:32:46.731Z,15.67
2018-07-31T04:35:15.611Z,18.17
2018-07-31T04:37:44.380Z,16.67
2018-07-31T04:40:13.161Z,19.20
2018-07-31T04:42:42.136Z,17.50
2018-07-31T04:45:11.845Z,18.37
2018-07-31T04:47:40.946Z,17.93
2018-07-31T04:50:11.988Z,17.40
2018-07-31T04:52:40.832Z,18.03
2018-07-31T04:55:09.598Z,19.83
2018-07-31T04:57:38.402Z,20.60
2018-07-31T05:00:08.705Z,16.20
2018-07-31T05:02:38.333Z,18.83
2018-07-31T05:05:07.389Z,17.03
2018-07-31T05:07:38.684Z,24.63
2018-07-31T05:10:11.374Z,16.27
2018-07-31T05:12:40.805Z,16.73
2018-07-31T05:15:09.800Z,14.67
2018-07-31T05:17:39.984Z,13.87
2018-07-31T05:20:10.259Z,14.10
2018-07-31T05:22:39.806Z,13.37
2018-07-31T05:25:08.766Z,13.17
2018-07-31T05:27:37.580Z,13.67
2018-07-31T05:30:08.275Z,13.37
2018-07-31T05:32:37.153Z,12.47
2018-07-31T05:35:06.852Z,13.63
2018-07-31T05:37:35.963Z,20.47
2018-07-31T05:40:05.176Z,19.67
2018-07-31T05:42:33.930Z,19.77
2018-07-31T05:45:02.756Z,22.07
2018-07-31T05:47:31.603Z,21.67
2018-07-31T05:50:00.404Z,18.17
2018-07-31T05:52:29.197Z,22.70
2018-07-31T05:54:57.970Z,19.40
2018-07-31T05:57:26.835Z,17.63
2018-07-31T05:59:55.764Z,17.17
2018-07-31T06:02:24.577Z,18.90
2018-07-31T06:04:53.453Z,20.73
2018-07-31T06:07:22.467Z,17.40
2018-07-31T06:09:51.316Z,10.93
2018-07-31T06:12:20.132Z,10.23
2018-07-31T06:14:48.908Z,8.90
2018-07-31T06:17:17.681Z,8.27
2018-07-31T06:19:48.161Z,8.20
2018-07-31T06:22:17.103Z,8.27
2018-07-31T06:24:45.942Z,8.53
2018-07-31T06:27:14.784Z,9.10
2018-07-31T06:29:43.730Z,8.80
2018-07-31T06:32:12.860Z,7.77
2018-07-31T06:34:41.614Z,8.37
2018-07-31T06:37:10.478Z,7.33
2018-07-31T06:39:39.359Z,8.77
2018-07-31T06:42:08.294Z,11.20
2018-07-31T06:44:37.100Z,9.03
2018-07-31T06:47:05.978Z,8.30
2018-07-31T06:49:34.942Z,8.13
2018-07-31T06:52:03.903Z,7.73
2018-07-31T06:54:32.757Z,10.03
2018-07-31T06:57:01.597Z,8.10
2018-07-31T06:59:31.673Z,11.53
2018-07-31T07:02:00.569Z,8.70
2018-07-31T07:04:29.322Z,11.53
2018-07-31T07:06:58.185Z,11.70
2018-07-31T07:09:26.964Z,12.20
2018-07-31T07:11:55.760Z,13.17
2018-07-31T07:14:24.597Z,11.53
2018-07-31T07:16:53.415Z,9.80
2018-07-31T07:19:22.183Z,11.03
2018-07-31T07:21:51.222Z,10.80
2018-07-31T07:24:20.064Z,13.80
2018-07-31T07:26:48.825Z,8.53
2018-07-31T07:29:17.753Z,8.03
2018-07-31T07:31:46.539Z,7.03
2018-07-31T07:34:15.342Z,7.67
2018-07-31T07:36:44.167Z,10.73
2018-07-31T07:39:13.624Z,8.00
2018-07-31T07:41:42.527Z,7.43
2018-07-31T07:44:12.011Z,7.73
2018-07-31T07:46:40.808Z,8.67
2018-07-31T07:49:09.801Z,9.70
2018-07-31T07:51:38.734Z,10.47
2018-07-31T07:54:07.906Z,11.50
2018-07-31T07:56:36.638Z,12.10
2018-07-31T07:59:05.477Z,11.03
2018-07-31T08:01:34.264Z,8.90
2018-07-31T08:04:03.241Z,10.17
2018-07-31T08:06:32.109Z,10.73
2018-07-31T08:09:00.896Z,8.20
2018-07-31T08:11:29.676Z,9.20
2018-07-31T08:13:58.508Z,9.50
2018-07-31T08:16:27.416Z,11.47
2018-07-31T08:18:56.237Z,9.60
2018-07-31T08:21:26.547Z,8.87
2018-07-31T08:23:56.676Z,9.93
2018-07-31T08:26:25.521Z,25.43
2018-07-31T08:28:54.366Z,9.83
2018-07-31T08:33:04.547Z,16.23
2018-07-31T08:35:33.363Z,17.63
2018-07-31T08:38:02.156Z,22.10
2018-07-31T08:40:31.090Z,10.13
2018-07-31T08:42:59.984Z,13.60
2018-07-31T08:45:28.826Z,11.17
2018-07-31T08:47:57.758Z,20.37
2018-07-31T08:50:26.539Z,14.53
2018-07-31T08:52:55.315Z,23.40
2018-07-31T08:55:24.184Z,31.43
2018-07-31T08:57:52.956Z,19.57
2018-07-31T09:00:21.760Z,9.20
2018-07-31T09:02:50.664Z,7.90
2018-07-31T09:18:20.272Z,9.03
2018-07-31T09:20:49.099Z,8.80
2018-07-31T09:23:17.898Z,9.03
2018-07-31T09:25:47.774Z,8.73
2018-07-31T09:28:18.768Z,10.70
2018-07-31T09:30:52.766Z,8.37
2018-07-31T09:33:22.986Z,8.17
2018-07-31T09:35:51.804Z,8.50
2018-07-31T09:38:20.736Z,8.13
2018-07-31T09:40:49.611Z,7.93
2018-07-31T09:43:18.491Z,8.20
2018-07-31T09:45:47.304Z,8.77
2018-07-31T09:48:16.209Z,8.10
2018-07-31T09:50:45.094Z,9.47
2018-07-31T09:53:14.100Z,8.30
2018-07-31T09:55:43.083Z,7.37
2018-07-31T09:58:11.961Z,7.87
2018-07-31T10:00:45.965Z,7.93
2018-07-31T10:03:14.845Z,8.10
2018-07-31T10:05:43.716Z,8.17
2018-07-31T10:08:16.760Z,8.27
2018-07-31T10:10:45.628Z,8.40
2018-07-31T10:13:14.459Z,8.17
2018-07-31T10:15:43.334Z,9.37
2018-07-31T10:18:12.258Z,8.93
2018-07-31T10:20:41.020Z,7.60
2018-07-31T10:23:09.881Z,7.40
2018-07-31T10:25:40.363Z,7.30
2018-07-31T10:28:09.711Z,7.73
2018-07-31T10:30:45.033Z,8.40
2018-07-31T10:33:13.793Z,8.23
2018-07-31T10:35:42.615Z,7.70
2018-07-31T10:38:11.468Z,7.60
2018-07-31T10:40:40.539Z,7.87
2018-07-31T10:43:09.378Z,7.60
2018-07-31T10:45:38.239Z,8.77
2018-07-31T10:48:07.223Z,7.40
2018-07-31T10:50:36.186Z,7.73
2018-07-31T10:53:05.132Z,7.85
2018-07-31T10:55:33.968Z,9.90
2018-07-31T10:58:02.856Z,8.10
2018-07-31T11:00:32.997Z,7.30
2018-07-31T11:03:01.782Z,8.13
2018-07-31T11:05:30.572Z,7.53
2018-07-31T11:07:59.425Z,7.30
2018-07-31T11:10:28.274Z,8.63
2018-07-31T11:12:57.053Z,7.90
2018-07-31T11:15:25.899Z,9.03
2018-07-31T11:17:54.709Z,7.85
2018-07-31T11:20:23.581Z,7.90
2018-07-31T11:22:52.601Z,9.38
2018-07-31T11:25:22.849Z,8.25
2018-07-31T11:27:51.704Z,8.00
2018-07-31T11:30:20.664Z,7.70
2018-07-31T11:32:49.550Z,7.55
2018-07-31T11:35:18.389Z,8.25
2018-07-31T11:37:47.201Z,7.83
2018-07-31T11:40:16.086Z,8.20
2018-07-31T11:42:44.871Z,7.85
2018-07-31T11:45:13.643Z,7.53
2018-07-31T11:47:42.471Z,8.43
2018-07-31T11:50:11.338Z,7.35
2018-07-31T11:52:40.196Z,7.80
2018-07-31T11:55:09.067Z,7.67
2018-07-31T11:57:37.859Z,8.05
2018-07-31T12:00:09.267Z,7.90
2018-07-31T12:02:39.479Z,8.00
2018-07-31T12:05:08.596Z,7.40
2018-07-31T12:07:37.435Z,7.37
2018-07-31T12:10:06.768Z,8.30
2018-07-31T12:12:35.606Z,8.85
2018-07-31T12:15:04.927Z,7.15
2018-07-31T12:17:33.717Z,7.72
2018-07-31T12:20:02.531Z,7.58
2018-07-31T12:22:31.304Z,6.50
2018-07-31T12:25:00.055Z,7.45
2018-07-31T12:27:28.827Z,6.87
2018-07-31T12:29:57.663Z,8.80
2018-07-31T12:32:26.466Z,7.00
2018-07-31T12:34:55.236Z,6.67
2018-07-31T12:37:24.106Z,7.47
2018-07-31T12:39:52.881Z,7.75
2018-07-31T12:42:23.192Z,7.72
2018-07-31T12:44:52.121Z,7.47
2018-07-31T12:47:21.054Z,7.80
2018-07-31T12:49:49.942Z,7.75
2018-07-31T12:52:19.012Z,7.70
2018-07-31T12:54:47.804Z,7.78
2018-07-31T12:57:16.604Z,8.38
2018-07-31T12:59:45.448Z,7.33
2018-07-31T13:02:14.364Z,8.03
2018-07-31T13:04:43.153Z,8.13
2018-07-31T13:07:12.004Z,8.45
2018-07-31T13:09:40.873Z,9.10
2018-07-31T13:12:09.794Z,8.95
2018-07-31T13:14:38.714Z,8.95
2018-07-31T13:17:07.550Z,9.08
2018-07-31T13:19:36.335Z,9.23
2018-07-31T13:22:05.247Z,8.68
2018-07-31T13:24:34.033Z,8.58
2018-07-31T13:27:02.844Z,8.20
2018-07-31T13:29:31.809Z,8.35
2018-07-31T13:32:00.663Z,10.70
2018-07-31T13:34:29.420Z,8.60
2018-07-31T13:36:58.267Z,9.00
2018-07-31T13:39:27.074Z,8.60
2018-07-31T13:41:55.846Z,8.38
2018-07-31T13:44:24.688Z,8.45
2018-07-31T13:46:53.455Z,8.38
2018-07-31T13:49:22.302Z,8.68
2018-07-31T14:05:50.416Z,8.25
2018-07-31T14:20:15.739Z,8.30
2018-07-31T14:22:44.557Z,8.58
2018-07-31T14:25:13.384Z,8.58
2018-07-31T14:27:42.266Z,9.25
2018-07-31T14:30:11.112Z,8.98
2018-07-31T14:32:39.892Z,8.38
2018-07-31T14:35:08.818Z,8.63
2018-07-31T14:37:37.710Z,9.65
2018-07-31T14:40:07.965Z,9.45
2018-07-31T14:42:36.933Z,9.65
2018-07-31T14:45:06.032Z,9.88
2018-07-31T14:47:36.150Z,10.23
2018-07-31T14:50:05.288Z,9.90
2018-07-31T14:52:34.051Z,10.48
2018-07-31T14:55:02.883Z,9.08
2018-07-31T14:57:31.662Z,9.55
2018-07-31T15:00:00.527Z,9.23
2018-07-31T15:02:29.363Z,9.70
2018-07-31T15:04:59.777Z,10.75
2018-07-31T15:07:28.569Z,10.23
2018-07-31T15:09:57.528Z,10.53
2018-07-31T15:12:26.364Z,14.43
2018-07-31T15:14:55.157Z,9.83
2018-07-31T15:17:23.936Z,10.13
2018-07-31T15:19:52.784Z,10.63
2018-07-31T15:22:21.707Z,10.17
2018-07-31T15:24:50.497Z,10.83
2018-07-31T15:27:19.524Z,9.70
2018-07-31T15:29:48.404Z,9.30
2018-07-31T15:32:17.180Z,10.17
2018-07-31T15:34:45.977Z,10.27
2018-07-31T15:37:14.860Z,8.97
2018-07-31T15:39:43.657Z,10.43
2018-07-31T15:42:12.477Z,9.17
2018-07-31T15:44:41.314Z,8.90
2018-07-31T15:47:10.187Z,10.90
2018-07-31T15:49:40.433Z,8.60
2018-07-31T15:52:09.202Z,8.53
2018-07-31T15:54:37.971Z,9.18
2018-07-31T15:57:06.810Z,8.95
2018-07-31T15:59:35.700Z,8.55
2018-07-31T16:02:04.553Z,9.20
2018-07-31T16:04:34.778Z,8.88
2018-07-31T16:07:03.560Z,10.88
2018-07-31T16:09:32.365Z,8.80
2018-07-31T16:12:01.209Z,8.73
2018-07-31T16:14:30.053Z,7.60
2018-07-31T16:16:59.080Z,14.63
2018-07-31T16:19:27.867Z,8.70
2018-07-31T16:21:56.692Z,8.28
2018-07-31T16:24:26.816Z,6.80
2018-07-31T16:26:55.641Z,9.03
2018-07-31T16:29:24.429Z,6.67
2018-07-31T16:31:53.540Z,14.75
2018-07-31T16:34:22.317Z,9.00
2018-07-31T16:36:51.151Z,6.87
2018-07-31T16:39:20.021Z,7.22
2018-07-31T16:41:50.143Z,8.43
2018-07-31T16:44:18.915Z,9.85
2018-07-31T16:46:47.707Z,7.10
2018-07-31T16:49:16.524Z,8.20
2018-07-31T16:51:45.312Z,7.55
2018-07-31T16:54:14.182Z,8.45
2018-07-31T16:56:44.316Z,9.70
2018-07-31T16:59:13.096Z,9.15
2018-07-31T17:01:41.968Z,10.63
2018-07-31T17:04:10.795Z,10.55
2018-07-31T17:06:39.597Z,7.95
2018-07-31T17:09:08.662Z,9.97
2018-07-31T17:11:38.913Z,10.80
2018-07-31T17:14:07.788Z,9.87
2018-07-31T17:16:36.564Z,9.27
2018-07-31T17:19:05.444Z,8.63
2018-07-31T17:21:34.296Z,8.43
2018-07-31T17:24:03.153Z,11.37
2018-07-31T17:26:32.036Z,11.97
2018-07-31T17:29:01.201Z,10.30
2018-07-31T17:31:30.000Z,9.10
2018-07-31T17:34:00.172Z,10.00
2018-07-31T17:36:29.059Z,9.73
2018-07-31T17:38:59.202Z,9.13
2018-07-31T17:41:27.999Z,9.93
2018-07-31T17:43:56.992Z,10.47
2018-07-31T17:46:25.797Z,10.27
2018-07-31T17:48:55.048Z,9.73
2018-07-31T17:51:23.928Z,14.20
2018-07-31T17:53:52.710Z,9.93
2018-07-31T17:56:21.483Z,10.17
2018-07-31T17:58:50.502Z,11.07
2018-07-31T18:01:19.301Z,12.03
2018-07-31T18:03:48.083Z,13.47
2018-07-31T18:06:16.904Z,10.97
2018-07-31T18:08:45.675Z,9.80
2018-07-31T18:11:14.452Z,10.60
2018-07-31T18:13:43.300Z,9.97
2018-07-31T18:16:12.100Z,10.40
2018-07-31T18:18:40.876Z,9.93
2018-07-31T18:21:09.719Z,9.57
2018-07-31T18:23:38.867Z,9.43
2018-07-31T18:26:07.640Z,10.67
2018-07-31T18:28:36.512Z,10.90
2018-07-31T18:31:05.334Z,10.03
2018-07-31T18:33:34.179Z,11.07
2018-07-31T18:36:04.527Z,10.73
2018-07-31T18:38:33.488Z,12.47
2018-07-31T18:41:02.328Z,11.73
2018-07-31T18:43:31.152Z,10.20
2018-07-31T18:46:00.039Z,10.60
2018-07-31T18:48:28.871Z,10.57
2018-07-31T18:50:57.770Z,10.03
2018-07-31T18:53:28.130Z,11.57
2018-07-31T18:55:56.916Z,11.10
2018-07-31T18:58:25.872Z,10.20
2018-07-31T19:00:55.227Z,11.20
2018-07-31T19:03:24.274Z,9.77
2018-07-31T19:05:54.327Z,9.60
2018-07-31T19:08:23.267Z,10.03
2018-07-31T19:10:52.106Z,12.67
2018-07-31T19:13:20.981Z,11.53
2018-07-31T19:15:49.787Z,11.77
2018-07-31T19:18:18.580Z,11.17
2018-07-31T19:20:47.610Z,12.53
2018-07-31T19:23:16.419Z,12.30
2018-07-31T19:25:45.295Z,11.97
2018-07-31T19:28:14.307Z,12.07
2018-07-31T19:30:43.182Z,12.37
2018-07-31T19:33:12.067Z,11.73
2018-07-31T19:35:42.332Z,11.67
2018-07-31T19:38:11.133Z,10.60
2018-07-31T19:40:40.021Z,12.13
2018-07-31T19:43:10.373Z,11.90
2018-07-31T19:45:39.318Z,13.20
2018-07-31T19:48:15.071Z,12.07
2018-07-31T19:50:44.011Z,12.23
2018-07-31T19:53:12.945Z,12.53
2018-07-31T19:55:41.803Z,14.10
2018-07-31T19:58:11.875Z,15.03
2018-07-31T20:00:40.716Z,14.20
2018-07-31T20:03:09.588Z,14.60
2018-07-31T20:05:38.479Z,13.00
2018-07-31T20:08:07.356Z,14.43
2018-07-31T20:10:41.770Z,14.10
2018-07-31T20:13:13.190Z,14.10
2018-07-31T20:15:44.325Z,12.43
2018-07-31T20:18:14.448Z,13.70
2018-07-31T20:20:46.911Z,14.73
2018-07-31T20:23:20.230Z,15.77
2018-07-31T20:25:54.275Z,17.20
2018-07-31T20:28:25.939Z,15.20
2018-07-31T20:30:55.464Z,16.83
2018-07-31T20:33:28.767Z,15.00
2018-07-31T20:36:00.746Z,14.47
2018-07-31T20:38:34.378Z,16.00
2018-07-31T20:41:08.075Z,15.43
2018-07-31T20:43:37.686Z,15.17
2018-07-31T20:46:07.814Z,16.20
2018-07-31T20:48:40.386Z,15.50
2018-07-31T20:51:10.265Z,17.20
2018-07-31T20:53:44.107Z,15.63
2018-07-31T20:56:15.061Z,15.03
2018-07-31T20:58:49.535Z,13.40
2018-07-31T21:01:22.230Z,14.40
2018-07-31T21:03:52.862Z,12.67
2018-07-31T21:06:26.290Z,12.53
2018-07-31T21:08:58.816Z,13.67
2018-07-31T21:11:30.651Z,12.60
2018-07-31T21:14:05.858Z,10.53
2018-07-31T21:16:39.992Z,11.20
2018-07-31T21:19:13.006Z,12.00
2018-07-31T21:21:46.240Z,10.03
2018-07-31T21:24:17.399Z,11.13
2018-07-31T21:26:51.205Z,11.10
2018-07-31T21:29:23.161Z,10.73
2018-07-31T21:31:52.735Z,11.17
2018-07-31T21:34:27.041Z,10.93
2018-07-31T21:36:57.242Z,10.57
2018-07-31T21:39:28.214Z,13.13
2018-07-31T21:42:00.719Z,12.00
2018-07-31T21:44:33.295Z,11.40
2018-07-31T21:47:04.808Z,12.30
2018-07-31T21:49:36.715Z,12.17
2018-07-31T21:52:10.473Z,11.57
2018-07-31T21:54:42.732Z,10.40
2018-07-31T21:57:14.407Z,10.53
2018-07-31T21:59:48.969Z,11.07
2018-07-31T22:02:20.602Z,12.40
2018-07-31T22:04:51.758Z,11.90
2018-07-31T22:07:22.875Z,12.70
2018-07-31T22:09:56.007Z,11.87
2018-07-31T22:12:27.277Z,11.70
2018-07-31T22:14:57.193Z,11.47
2018-07-31T22:17:26.838Z,12.33
2018-07-31T22:19:56.970Z,11.13
2018-07-31T22:22:30.076Z,12.17
2018-07-31T22:25:06.010Z,14.00
2018-07-31T22:27:37.939Z,12.27
2018-07-31T22:30:09.862Z,12.67
2018-07-31T22:32:41.218Z,11.70
2018-07-31T22:35:14.499Z,10.80
2018-07-31T22:37:47.755Z,11.83
2018-07-31T22:40:18.683Z,11.43
2018-07-31T22:42:49.810Z,9.57
2018-07-31T22:45:21.323Z,9.33
2018-07-31T22:47:51.880Z,9.60
2018-07-31T22:50:28.109Z,10.63
2018-07-31T22:52:58.293Z,12.67
2018-07-31T22:55:30.718Z,11.57
2018-07-31T22:58:03.604Z,13.57
2018-07-31T23:00:35.769Z,14.33
2018-07-31T23:03:08.436Z,15.30
2018-07-31T23:05:42.321Z,13.83
2018-07-31T23:08:14.859Z,14.30
2018-07-31T23:10:48.511Z,15.00
2018-07-31T23:13:19.574Z,16.40
2018-07-31T23:15:50.692Z,16.50
2018-07-31T23:18:21.654Z,16.27
2018-07-31T23:20:53.821Z,19.20
2018-07-31T23:23:25.661Z,17.43
2018-07-31T23:25:56.324Z,17.60
2018-07-31T23:28:28.385Z,17.33
2018-07-31T23:30:59.513Z,17.60
2018-07-31T23:33:30.290Z,20.13
2018-07-31T23:36:08.495Z,18.20
2018-07-31T23:38:38.881Z,17.43
2018-07-31T23:41:11.948Z,18.37
2018-07-31T23:43:43.840Z,19.33
2018-07-31T23:46:14.775Z,19.77
2018-07-31T23:48:47.419Z,17.70
2018-07-31T23:51:20.783Z,17.30
2018-07-31T23:53:51.364Z,22.93
2018-07-31T23:56:23.315Z,18.23
2018-07-31T23:58:52.663Z,18.57
